Time;durP1;ratioP1;P1;durP2;ratioP2;P2;SDS_P1;SDS_P2;PMS_P1;PMS_P2;Temp;Humidity;BMP_temperature;BMP_pressure;BME280_temperature;BME280_humidity;BME280_pressure;Samples;Min_cycle;Max_cycle;Signal;HPM_P1;HPM_P2
2022/11/01 00:02:06;;;;;;;;;;;8.90;99.90;;;;;;5097374;28;20382;-79
2022/11/01 00:04:32;;;;;;;;;;;8.90;99.90;;;;;;5104215;28;20402;-79
2022/11/01 00:06:57;;;;;;;;;;;8.90;99.90;;;;;;5076430;28;19974;-79
2022/11/01 00:09:23;;;;;;;;;;;9.00;99.90;;;;;;5095737;28;19990;-80
2022/11/01 00:11:48;;;;;;;;;;;9.00;99.90;;;;;;5096545;28;19962;-79
2022/11/01 00:14:15;;;;;;;;;;;9.00;99.90;;;;;;5099579;28;19999;-79
2022/11/01 00:16:41;;;;;;;;;;;9.10;99.90;;;;;;5097854;28;19924;-79
2022/11/01 00:19:06;;;;;;;;;;;9.10;99.90;;;;;;5103086;28;20003;-79
2022/11/01 00:21:32;;;;;;;;;;;9.20;99.90;;;;;;5093743;28;20052;-79
2022/11/01 00:23:57;;;;;;;;;;;9.20;99.90;;;;;;5096269;28;19952;-79
2022/11/01 00:26:23;;;;;;;;;;;9.20;99.90;;;;;;5102176;28;19923;-80
2022/11/01 00:28:49;;;;;;;;;;;9.20;99.90;;;;;;5097881;28;19915;-80
2022/11/01 00:31:15;;;;;;;;;;;9.10;99.90;;;;;;5092068;28;19931;-79
2022/11/01 00:33:41;;;;;;;;;;;9.10;99.90;;;;;;5098528;28;19920;-79
2022/11/01 00:36:07;;;;;;;;;;;9.20;99.90;;;;;;5096114;28;19927;-79
2022/11/01 00:38:33;;;;;;;;;;;9.30;99.90;;;;;;5096726;28;19990;-80
2022/11/01 00:40:58;;;;;;;;;;;9.20;99.90;;;;;;5103578;28;19912;-79
2022/11/01 00:43:24;;;;;;;;;;;9.20;99.90;;;;;;5098488;28;19918;-79
2022/11/01 00:45:50;;;;;;;;;;;9.10;99.90;;;;;;5093923;28;20337;-80
2022/11/01 00:48:15;;;;;;;;;;;9.10;99.90;;;;;;5106317;28;19959;-80
2022/11/01 00:50:41;;;;;;;;;;;9.10;99.90;;;;;;5089955;28;20391;-80
2022/11/01 00:53:08;;;;;;;;;;;9.10;99.90;;;;;;5092361;28;20264;-79
2022/11/01 00:55:33;;;;;;;;;;;9.10;99.90;;;;;;5102229;28;19915;-79
2022/11/01 00:57:59;;;;;;;;;;;9.10;99.90;;;;;;5080279;28;19917;-79
2022/11/01 01:00:24;;;;;;;;;;;9.10;99.90;;;;;;5091993;28;20333;-80
2022/11/01 01:02:50;;;;;;;;;;;9.10;99.90;;;;;;5099247;28;19912;-79
2022/11/01 01:05:15;;;;;;;;;;;9.20;99.90;;;;;;5099162;28;19916;-80
2022/11/01 01:07:41;;;;;;;;;;;9.20;99.90;;;;;;5093560;28;19966;-79
2022/11/01 01:10:07;;;;;;;;;;;9.30;99.90;;;;;;5094220;28;19920;-79
2022/11/01 01:12:32;;;;;;;;;;;9.30;99.90;;;;;;5114759;27;20421;-79
2022/11/01 01:14:58;;;;;;;;;;;9.40;99.90;;;;;;5100434;28;19920;-79
2022/11/01 01:17:23;;;;;;;;;;;9.30;99.90;;;;;;5104474;28;20412;-79
2022/11/01 01:19:49;;;;;;;;;;;9.40;99.90;;;;;;5102897;28;19912;-80
2022/11/01 01:22:14;;;;;;;;;;;9.40;99.90;;;;;;5099099;28;19915;-79
2022/11/01 01:24:44;;;;;;;;;;;9.40;99.90;;;;;;5101748;28;19965;-80
2022/11/01 01:27:11;;;;;;;;;;;9.40;99.90;;;;;;5102859;28;20401;-79
2022/11/01 01:29:40;;;;;;;;;;;9.40;99.90;;;;;;5099779;28;20383;-79
2022/11/01 01:32:07;;;;;;;;;;;9.50;99.90;;;;;;5101090;28;19980;-80
2022/11/01 01:34:32;;;;;;;;;;;9.50;99.90;;;;;;5104193;28;19962;-80
2022/11/01 01:36:58;;;;;;;;;;;9.60;99.90;;;;;;5095869;28;19943;-79
2022/11/01 01:39:23;;;;;;;;;;;9.60;99.90;;;;;;5103351;28;20030;-79
2022/11/01 01:41:55;;;;;;;;;;;9.60;99.90;;;;;;5102320;28;20372;-79
2022/11/01 01:44:39;;;;;;;;;;;9.60;99.90;;;;;;5096797;28;20690;-80
2022/11/01 01:47:04;;;;;;;;;;;9.50;99.90;;;;;;5094240;28;20431;-79
2022/11/01 01:49:30;;;;;;;;;;;9.60;99.90;;;;;;5101070;28;19931;-79
2022/11/01 01:51:55;;;;;;;;;;;9.50;99.90;;;;;;5095323;28;19916;-80
2022/11/01 01:54:21;;;;;;;;;;;9.60;99.90;;;;;;5098592;28;20390;-80
2022/11/01 01:56:46;;;;;;;;;;;9.50;99.90;;;;;;5103705;28;19920;-79
2022/11/01 01:59:12;;;;;;;;;;;9.40;99.90;;;;;;5096823;28;20333;-80
2022/11/01 02:01:39;;;;;;;;;;;9.50;99.90;;;;;;5096983;28;19922;-79
2022/11/01 02:04:07;;;;;;;;;;;9.50;99.90;;;;;;5106165;28;19957;-79
2022/11/01 02:06:33;;;;;;;;;;;9.50;99.90;;;;;;5096423;28;19947;-80
2022/11/01 02:09:00;;;;;;;;;;;9.50;99.90;;;;;;5100623;28;20465;-79
2022/11/01 02:11:25;;;;;;;;;;;9.50;99.90;;;;;;5098934;28;19950;-80
2022/11/01 02:13:51;;;;;;;;;;;9.50;99.90;;;;;;5096910;28;20283;-79
2022/11/01 02:16:35;;;;;;;;;;;9.50;99.90;;;;;;5095523;28;19916;-80
2022/11/01 02:19:19;;;;;;;;;;;9.50;99.90;;;;;;5099418;28;20433;-80
2022/11/01 02:21:54;;;;;;;;;;;9.50;99.90;;;;;;5112956;27;19915;-80
2022/11/01 02:24:31;;;;;;;;;;;9.40;99.90;;;;;;5096542;28;19916;-79
2022/11/01 02:26:57;;;;;;;;;;;9.40;99.90;;;;;;5098704;28;19915;-80
2022/11/01 02:29:28;;;;;;;;;;;9.30;99.90;;;;;;5099158;28;20374;-78
2022/11/01 02:32:03;;;;;;;;;;;9.30;99.90;;;;;;5098356;28;19927;-79
2022/11/01 02:34:40;;;;;;;;;;;9.30;99.90;;;;;;5103877;28;19923;-79
2022/11/01 02:37:09;;;;;;;;;;;9.30;99.90;;;;;;5096261;28;19916;-79
2022/11/01 02:39:37;;;;;;;;;;;9.30;99.90;;;;;;5105896;28;19923;-79
2022/11/01 02:42:02;;;;;;;;;;;9.30;99.90;;;;;;5097341;28;19968;-79
2022/11/01 02:44:32;;;;;;;;;;;9.40;99.90;;;;;;5099297;28;20003;-79
2022/11/01 02:47:00;;;;;;;;;;;9.30;99.90;;;;;;5103279;28;20068;-79
2022/11/01 02:49:37;;;;;;;;;;;9.30;99.90;;;;;;5104362;28;19958;-79
2022/11/01 02:52:04;;;;;;;;;;;9.20;99.90;;;;;;5092055;28;19923;-79
2022/11/01 02:54:29;;;;;;;;;;;9.30;99.90;;;;;;5097535;28;19912;-79
2022/11/01 02:56:57;;;;;;;;;;;9.30;99.90;;;;;;5097576;28;20029;-79
2022/11/01 02:59:23;;;;;;;;;;;9.30;99.90;;;;;;5101696;28;20002;-79
2022/11/01 03:01:55;;;;;;;;;;;9.40;99.90;;;;;;5111921;27;19922;-79
2022/11/01 03:04:20;;;;;;;;;;;9.40;99.90;;;;;;5097755;28;19927;-79
2022/11/01 03:06:50;;;;;;;;;;;9.40;99.90;;;;;;5095282;28;19920;-79
2022/11/01 03:09:16;;;;;;;;;;;9.40;99.90;;;;;;5098132;28;20420;-79
2022/11/01 03:11:58;;;;;;;;;;;9.40;99.90;;;;;;5101897;28;20011;-79
2022/11/01 03:14:29;;;;;;;;;;;9.50;99.90;;;;;;5100024;28;19912;-79
2022/11/01 03:17:10;;;;;;;;;;;9.50;99.90;;;;;;5094649;28;20259;-79
2022/11/01 03:19:39;;;;;;;;;;;9.40;99.90;;;;;;5103336;28;19972;-79
2022/11/01 03:22:10;;;;;;;;;;;9.40;99.90;;;;;;5091974;28;19912;-79
2022/11/01 03:24:42;;;;;;;;;;;9.40;99.90;;;;;;5100805;28;19911;-79
2022/11/01 03:27:11;;;;;;;;;;;9.40;99.90;;;;;;5103196;28;19916;-79
2022/11/01 03:29:37;;;;;;;;;;;9.40;99.90;;;;;;5097618;28;20072;-80
2022/11/01 03:32:03;;;;;;;;;;;9.40;99.90;;;;;;5096241;28;20485;-79
2022/11/01 03:34:30;;;;;;;;;;;9.40;99.90;;;;;;5096313;28;19915;-79
2022/11/01 03:36:58;;;;;;;;;;;9.40;99.90;;;;;;5093338;28;20049;-79
2022/11/01 03:39:26;;;;;;;;;;;9.40;99.90;;;;;;5095213;28;20310;-79
2022/11/01 03:41:54;;;;;;;;;;;9.40;99.90;;;;;;5098832;28;20391;-79
2022/11/01 03:44:20;;;;;;;;;;;9.40;99.90;;;;;;5102774;28;20318;-79
2022/11/01 03:46:45;;;;;;;;;;;9.40;99.90;;;;;;5099435;28;19964;-79
2022/11/01 03:49:18;;;;;;;;;;;9.40;99.90;;;;;;5098365;28;19971;-79
2022/11/01 03:51:43;;;;;;;;;;;9.40;99.90;;;;;;5098136;28;19971;-80
2022/11/01 03:54:09;;;;;;;;;;;9.50;99.90;;;;;;5097744;28;19962;-79
2022/11/01 03:56:36;;;;;;;;;;;9.50;99.90;;;;;;5104774;28;19920;-80
2022/11/01 03:59:01;;;;;;;;;;;9.50;99.90;;;;;;5091985;28;20010;-79
2022/11/01 04:01:27;;;;;;;;;;;9.50;99.90;;;;;;5075833;28;20141;-79
2022/11/01 04:03:52;;;;;;;;;;;9.50;99.90;;;;;;5102681;28;20401;-80
2022/11/01 04:06:18;;;;;;;;;;;9.60;99.90;;;;;;5098762;28;19916;-79
2022/11/01 04:08:43;;;;;;;;;;;9.60;99.90;;;;;;5095844;28;19923;-79
2022/11/01 04:11:09;;;;;;;;;;;9.60;99.90;;;;;;5100805;28;19924;-79
2022/11/01 04:13:34;;;;;;;;;;;9.70;99.90;;;;;;5090311;28;19999;-80
2022/11/01 04:21:30;;;;;;;;;;;9.70;99.90;;;;;;5094251;28;19923;-79
2022/11/01 04:23:55;;;;;;;;;;;9.80;99.90;;;;;;5092718;28;19916;-77
2022/11/01 04:26:22;;;;;;;;;;;9.80;99.90;;;;;;5103762;28;19995;-79
2022/11/01 04:28:55;;;;;;;;;;;9.70;99.90;;;;;;5101306;28;20454;-79
2022/11/01 04:31:24;;;;;;;;;;;9.70;99.90;;;;;;5090099;28;19927;-79
2022/11/01 04:33:50;;;;;;;;;;;9.80;99.90;;;;;;5103604;28;19950;-79
2022/11/01 04:36:15;;;;;;;;;;;9.80;99.90;;;;;;5097412;28;19955;-79
2022/11/01 04:38:41;;;;;;;;;;;9.80;99.90;;;;;;5100229;28;19912;-80
2022/11/01 04:41:06;;;;;;;;;;;9.90;99.90;;;;;;5095098;28;19920;-79
2022/11/01 04:43:32;;;;;;;;;;;9.90;99.90;;;;;;5100517;28;19919;-79
2022/11/01 04:45:57;;;;;;;;;;;10.00;99.90;;;;;;5088402;28;20312;-79
2022/11/01 04:48:24;;;;;;;;;;;10.00;99.90;;;;;;5099946;28;20026;-79
2022/11/01 04:50:50;;;;;;;;;;;10.00;99.90;;;;;;5089812;28;20014;-79
2022/11/01 04:53:15;;;;;;;;;;;10.00;99.90;;;;;;5095119;28;20379;-79
2022/11/01 04:55:41;;;;;;;;;;;10.10;99.90;;;;;;5102841;28;19919;-78
2022/11/01 04:58:08;;;;;;;;;;;10.10;99.90;;;;;;5098920;28;20298;-79
2022/11/01 05:00:34;;;;;;;;;;;10.10;99.90;;;;;;5093592;28;19912;-79
2022/11/01 05:03:01;;;;;;;;;;;10.10;99.90;;;;;;5119799;28;19923;-79
2022/11/01 05:05:26;;;;;;;;;;;10.00;99.90;;;;;;5078461;28;19959;-79
2022/11/01 05:07:59;;;;;;;;;;;10.10;99.90;;;;;;5091696;28;20188;-79
2022/11/01 05:10:25;;;;;;;;;;;10.10;99.90;;;;;;5078664;28;19932;-79
2022/11/01 05:12:50;;;;;;;;;;;10.10;99.90;;;;;;5097329;28;19915;-79
2022/11/01 05:15:16;;;;;;;;;;;10.10;99.90;;;;;;5090838;28;20454;-79
2022/11/01 05:17:41;;;;;;;;;;;10.10;99.90;;;;;;5089988;28;19916;-78
2022/11/01 05:20:07;;;;;;;;;;;10.10;99.90;;;;;;5092949;28;20367;-79
2022/11/01 05:22:32;;;;;;;;;;;10.10;99.90;;;;;;5090852;28;20073;-78
2022/11/01 05:24:59;;;;;;;;;;;10.10;99.90;;;;;;5106380;28;19919;-79
2022/11/01 05:27:24;;;;;;;;;;;10.10;99.90;;;;;;5093880;28;19942;-79
2022/11/01 05:29:50;;;;;;;;;;;10.00;99.90;;;;;;5111185;28;20283;-79
2022/11/01 05:32:15;;;;;;;;;;;10.10;99.90;;;;;;5091259;28;20007;-78
2022/11/01 05:34:41;;;;;;;;;;;10.10;99.90;;;;;;5095839;28;20458;-78
2022/11/01 05:37:06;;;;;;;;;;;10.10;99.90;;;;;;5088889;28;19916;-79
2022/11/01 05:39:32;;;;;;;;;;;10.10;99.90;;;;;;5096479;28;20379;-79
2022/11/01 05:41:57;;;;;;;;;;;10.10;99.90;;;;;;5094041;28;19923;-78
2022/11/01 05:44:23;;;;;;;;;;;10.10;99.90;;;;;;5101950;28;19923;-79
2022/11/01 05:46:48;;;;;;;;;;;10.10;99.90;;;;;;5100765;28;19916;-79
2022/11/01 05:49:14;;;;;;;;;;;10.10;99.90;;;;;;5094678;28;19943;-79
2022/11/01 05:51:39;;;;;;;;;;;10.10;99.90;;;;;;5091058;28;19968;-78
2022/11/01 05:54:05;;;;;;;;;;;10.10;99.90;;;;;;5096977;28;20607;-78
2022/11/01 05:56:30;;;;;;;;;;;10.10;99.90;;;;;;5095786;28;19919;-79
2022/11/01 05:58:56;;;;;;;;;;;10.20;99.90;;;;;;5096529;28;19938;-79
2022/11/01 06:01:21;;;;;;;;;;;10.10;99.90;;;;;;5103163;28;20361;-78
2022/11/01 06:03:49;;;;;;;;;;;10.20;99.90;;;;;;5107835;28;19930;-79
2022/11/01 06:06:15;;;;;;;;;;;10.20;99.90;;;;;;5107374;28;19965;-79
2022/11/01 06:08:40;;;;;;;;;;;10.20;99.90;;;;;;5094516;28;19924;-79
2022/11/01 06:11:06;;;;;;;;;;;10.10;99.90;;;;;;5104608;28;19965;-79
2022/11/01 06:13:32;;;;;;;;;;;10.20;99.90;;;;;;5096063;28;19970;-78
2022/11/01 06:15:58;;;;;;;;;;;10.20;99.90;;;;;;5095245;28;19924;-79
2022/11/01 06:18:23;;;;;;;;;;;10.20;99.90;;;;;;5105401;28;19960;-78
2022/11/01 06:20:49;;;;;;;;;;;10.10;99.90;;;;;;5101488;28;19922;-78
2022/11/01 06:23:14;;;;;;;;;;;10.20;99.90;;;;;;5103638;28;20383;-79
2022/11/01 06:25:40;;;;;;;;;;;10.20;99.90;;;;;;5105223;28;19924;-78
2022/11/01 06:28:05;;;;;;;;;;;10.20;99.90;;;;;;5101816;28;19920;-78
2022/11/01 06:30:31;;;;;;;;;;;10.20;99.90;;;;;;5112075;27;19925;-79
2022/11/01 06:33:01;;;;;;;;;;;10.30;99.90;;;;;;5103061;28;20295;-79
2022/11/01 06:35:26;;;;;;;;;;;10.30;99.90;;;;;;5095344;28;19915;-79
2022/11/01 06:38:00;;;;;;;;;;;10.40;99.90;;;;;;5096597;28;19938;-79
2022/11/01 06:40:25;;;;;;;;;;;10.40;99.90;;;;;;5107601;28;20417;-78
2022/11/01 06:42:51;;;;;;;;;;;10.50;99.90;;;;;;5098043;28;19920;-79
2022/11/01 06:45:16;;;;;;;;;;;10.50;99.90;;;;;;5093110;28;19972;-79
2022/11/01 06:47:45;;;;;;;;;;;10.50;99.90;;;;;;5104062;28;19958;-79
2022/11/01 06:50:11;;;;;;;;;;;10.60;99.90;;;;;;5085430;28;20546;-79
2022/11/01 06:52:36;;;;;;;;;;;10.60;99.90;;;;;;5092535;28;19973;-79
2022/11/01 06:55:02;;;;;;;;;;;10.70;99.90;;;;;;5107841;28;19928;-78
2022/11/01 06:57:27;;;;;;;;;;;10.80;99.90;;;;;;5096641;28;20697;-79
2022/11/01 06:59:53;;;;;;;;;;;10.90;99.90;;;;;;5095381;28;19955;-79
2022/11/01 07:02:19;;;;;;;;;;;11.10;99.90;;;;;;5087440;28;19916;-79
2022/11/01 07:04:44;;;;;;;;;;;11.30;99.90;;;;;;5097376;28;20014;-78
2022/11/01 07:07:09;;;;;;;;;;;11.50;99.90;;;;;;5070154;28;20342;-79
2022/11/01 07:09:35;;;;;;;;;;;11.70;99.90;;;;;;5100644;28;19923;-78
2022/11/01 07:12:00;;;;;;;;;;;11.80;99.90;;;;;;5098730;28;19952;-78
2022/11/01 07:14:26;;;;;;;;;;;11.80;99.90;;;;;;5089263;28;20543;-78
2022/11/01 07:16:52;;;;;;;;;;;11.90;99.90;;;;;;5098568;28;19965;-79
2022/11/01 07:19:17;;;;;;;;;;;11.90;99.90;;;;;;5093789;28;19928;-78
2022/11/01 07:21:43;;;;;;;;;;;12.00;99.90;;;;;;5090346;28;19970;-78
2022/11/01 07:24:08;;;;;;;;;;;12.00;99.90;;;;;;5088267;28;20030;-78
2022/11/01 07:26:34;;;;;;;;;;;12.00;99.90;;;;;;5100181;28;19965;-78
2022/11/01 07:28:59;;;;;;;;;;;12.10;99.90;;;;;;5073312;28;19917;-79
2022/11/01 07:31:25;;;;;;;;;;;12.20;99.90;;;;;;5078773;28;19963;-79
2022/11/01 07:33:50;;;;;;;;;;;12.20;99.90;;;;;;5093143;28;20027;-79
2022/11/01 07:36:17;;;;;;;;;;;12.30;99.90;;;;;;5090567;28;20374;-79
2022/11/01 07:38:42;;;;;;;;;;;12.40;99.90;;;;;;5108296;27;19964;-79
2022/11/01 07:41:08;;;;;;;;;;;12.40;99.90;;;;;;5099133;27;20011;-78
2022/11/01 07:43:34;;;;;;;;;;;12.40;99.90;;;;;;5085667;28;19920;-78
2022/11/01 07:46:02;;;;;;;;;;;12.50;99.90;;;;;;5086861;28;20046;-78
2022/11/01 07:48:28;;;;;;;;;;;12.50;99.90;;;;;;5090856;28;19915;-78
2022/11/01 07:50:54;;;;;;;;;;;12.60;99.90;;;;;;5088906;28;19972;-78
2022/11/01 07:53:20;;;;;;;;;;;12.70;99.90;;;;;;5079126;28;19919;-79
2022/11/01 07:55:46;;;;;;;;;;;12.60;99.90;;;;;;5101919;28;20517;-79
2022/11/01 07:58:12;;;;;;;;;;;12.70;99.90;;;;;;5095603;28;20405;-79
2022/11/01 08:00:38;;;;;;;;;;;12.70;99.90;;;;;;5100420;28;20302;-79
2022/11/01 08:03:08;;;;;;;;;;;12.70;99.90;;;;;;5091462;28;20065;-79
2022/11/01 08:05:34;;;;;;;;;;;12.80;99.90;;;;;;5094184;28;19964;-79
2022/11/01 08:07:59;;;;;;;;;;;12.90;99.90;;;;;;5098062;28;19986;-79
2022/11/01 08:10:25;;;;;;;;;;;13.00;99.90;;;;;;5098687;28;19923;-79
2022/11/01 08:12:51;;;;;;;;;;;13.20;99.90;;;;;;5091088;28;19912;-79
2022/11/01 08:15:16;;;;;;;;;;;13.30;99.90;;;;;;5070536;28;19985;-79
2022/11/01 08:17:42;;;;;;;;;;;13.40;99.90;;;;;;5087273;28;20307;-81
2022/11/01 08:20:08;;;;;;;;;;;13.50;99.90;;;;;;5076229;28;20018;-79
2022/11/01 08:22:37;;;;;;;;;;;13.60;99.90;;;;;;5089096;28;20468;-79
2022/11/01 08:25:02;;;;;;;;;;;13.60;99.90;;;;;;5102169;28;19916;-79
2022/11/01 08:27:28;;;;;;;;;;;13.80;99.90;;;;;;5096748;28;19923;-80
2022/11/01 08:29:53;;;;;;;;;;;13.70;99.70;;;;;;5091184;28;19931;-79
2022/11/01 08:32:20;;;;;;;;;;;13.80;99.50;;;;;;5103748;28;19924;-79
2022/11/01 08:34:48;;;;;;;;;;;13.70;99.00;;;;;;5101049;28;19946;-80
2022/11/01 08:37:14;;;;;;;;;;;13.80;98.90;;;;;;5090135;28;19927;-80
2022/11/01 08:39:39;;;;;;;;;;;13.90;99.00;;;;;;5102609;28;19920;-80
2022/11/01 08:42:05;;;;;;;;;;;13.70;98.20;;;;;;5098852;28;19916;-78
2022/11/01 08:44:31;;;;;;;;;;;13.90;98.00;;;;;;5089880;28;19952;-78
2022/11/01 08:46:59;;;;;;;;;;;14.00;98.10;;;;;;5104919;28;19923;-78
2022/11/01 08:49:25;;;;;;;;;;;13.90;97.10;;;;;;5095543;28;19939;-78
2022/11/01 08:51:50;;;;;;;;;;;13.90;97.90;;;;;;5078460;28;19985;-78
2022/11/01 08:54:16;;;;;;;;;;;13.80;98.70;;;;;;5093268;28;20383;-78
2022/11/01 08:56:41;;;;;;;;;;;13.70;97.60;;;;;;5098753;28;19912;-78
2022/11/01 08:59:07;;;;;;;;;;;13.70;97.70;;;;;;5093768;28;19923;-78
2022/11/01 09:01:33;;;;;;;;;;;13.70;98.00;;;;;;5094385;28;19927;-78
2022/11/01 09:04:00;;;;;;;;;;;13.80;98.70;;;;;;5095874;28;19916;-78
2022/11/01 09:06:26;;;;;;;;;;;14.00;98.30;;;;;;5090734;28;20430;-78
2022/11/01 09:08:54;;;;;;;;;;;14.00;97.50;;;;;;5102100;28;19923;-78
2022/11/01 09:11:20;;;;;;;;;;;14.00;97.40;;;;;;5101437;28;20378;-78
2022/11/01 09:13:46;;;;;;;;;;;14.00;96.60;;;;;;5090946;28;19916;-78
2022/11/01 09:16:11;;;;;;;;;;;14.20;96.60;;;;;;5096456;28;19918;-78
2022/11/01 09:18:37;;;;;;;;;;;14.30;96.00;;;;;;5102485;28;19965;-78
2022/11/01 09:21:03;;;;;;;;;;;14.50;95.80;;;;;;5095760;28;19955;-78
2022/11/01 09:23:28;;;;;;;;;;;14.70;95.40;;;;;;5098858;28;19919;-77
2022/11/01 09:26:00;;;;;;;;;;;14.70;95.30;;;;;;5099631;28;19942;-77
2022/11/01 09:28:25;;;;;;;;;;;14.50;94.90;;;;;;5093182;28;20268;-76
2022/11/01 09:30:51;;;;;;;;;;;14.60;95.30;;;;;;5094693;28;19973;-77
2022/11/01 09:33:17;;;;;;;;;;;14.60;94.50;;;;;;5095014;28;19962;-77
2022/11/01 09:35:48;;;;;;;;;;;14.60;94.70;;;;;;5091897;28;20429;-78
2022/11/01 09:38:14;;;;;;;;;;;14.60;94.50;;;;;;5101418;28;19927;-79
2022/11/01 09:40:44;;;;;;;;;;;14.50;94.60;;;;;;5104148;28;20006;-78
2022/11/01 09:43:11;;;;;;;;;;;14.20;94.40;;;;;;5102333;28;19915;-77
2022/11/01 09:45:36;;;;;;;;;;;14.20;94.80;;;;;;5096531;28;19947;-77
2022/11/01 09:48:04;;;;;;;;;;;14.20;95.00;;;;;;5102250;28;19916;-77
2022/11/01 09:50:33;;;;;;;;;;;14.30;95.50;;;;;;5094763;28;19923;-79
2022/11/01 09:53:00;;;;;;;;;;;14.20;95.40;;;;;;5099888;28;19922;-79
2022/11/01 09:55:44;;;;;;;;;;;14.30;94.60;;;;;;5100753;28;19916;-79
2022/11/01 09:58:25;;;;;;;;;;;14.30;94.80;;;;;;5097217;28;19962;-79
2022/11/01 10:00:57;;;;;;;;;;;14.70;94.30;;;;;;5101622;28;20395;-79
2022/11/01 10:03:48;;;;;;;;;;;14.80;93.30;;;;;;5101674;28;19916;-78
2022/11/01 10:06:43;;;;;;;;;;;14.80;93.10;;;;;;5086602;28;19927;-79
2022/11/01 10:09:28;;;;;;;;;;;14.80;92.90;;;;;;5001286;28;19921;-78
2022/11/01 10:11:56;;;;;;;;;;;14.90;92.90;;;;;;5092334;28;20340;-78
2022/11/01 10:14:21;;;;;;;;;;;15.00;92.90;;;;;;5096338;28;19927;-79
2022/11/01 10:17:11;;;;;;;;;;;14.90;92.40;;;;;;5101832;28;19912;-78
2022/11/01 10:19:37;;;;;;;;;;;15.10;93.20;;;;;;5096171;28;19969;-78
2022/11/01 10:22:10;;;;;;;;;;;15.20;92.60;;;;;;5095073;28;19916;-77
2022/11/01 10:24:39;;;;;;;;;;;15.20;91.70;;;;;;5106655;28;19911;-77
2022/11/01 10:27:11;;;;;;;;;;;15.10;92.10;;;;;;5094447;28;19992;-78
2022/11/01 10:29:43;;;;;;;;;;;15.20;91.80;;;;;;5095216;28;19952;-77
2022/11/01 10:32:18;;;;;;;;;;;15.50;91.40;;;;;;5104562;28;20402;-78
2022/11/01 10:34:44;;;;;;;;;;;15.30;91.30;;;;;;5091497;28;19961;-79
2022/11/01 10:37:22;;;;;;;;;;;15.40;90.60;;;;;;5097758;28;20445;-80
2022/11/01 10:39:50;;;;;;;;;;;15.30;90.50;;;;;;5104468;28;20279;-78
2022/11/01 10:42:16;;;;;;;;;;;15.40;90.40;;;;;;5093903;28;19917;-81
2022/11/01 10:44:45;;;;;;;;;;;15.50;90.90;;;;;;5085100;28;20422;-79
2022/11/01 10:47:13;;;;;;;;;;;15.40;91.20;;;;;;5096721;28;19920;-78
2022/11/01 10:49:44;;;;;;;;;;;15.40;90.00;;;;;;5099788;28;19916;-80
2022/11/01 10:52:13;;;;;;;;;;;15.50;90.60;;;;;;5090649;28;20326;-80
2022/11/01 10:54:40;;;;;;;;;;;15.70;89.40;;;;;;5088795;28;20268;-80
2022/11/01 10:57:12;;;;;;;;;;;15.70;88.90;;;;;;5094573;28;20008;-79
2022/11/01 10:59:39;;;;;;;;;;;15.50;86.80;;;;;;5088540;28;19999;-80
2022/11/01 11:02:11;;;;;;;;;;;15.50;88.10;;;;;;5093308;28;19923;-80
2022/11/01 11:04:37;;;;;;;;;;;15.60;88.50;;;;;;5100761;28;19922;-79
2022/11/01 11:07:08;;;;;;;;;;;15.70;88.00;;;;;;5096022;28;19919;-79
2022/11/01 11:09:34;;;;;;;;;;;15.60;85.30;;;;;;5101925;28;19911;-80
2022/11/01 11:12:11;;;;;;;;;;;15.80;87.20;;;;;;5100601;28;19919;-80
2022/11/01 11:14:38;;;;;;;;;;;15.90;85.70;;;;;;5088333;28;20348;-79
2022/11/01 11:17:09;;;;;;;;;;;15.70;84.40;;;;;;5106554;28;19969;-79
2022/11/01 11:19:37;;;;;;;;;;;15.60;85.00;;;;;;5102687;28;19999;-84
2022/11/01 11:22:05;;;;;;;;;;;15.80;84.90;;;;;;5101694;28;20398;-89
2022/11/01 11:24:33;;;;;;;;;;;15.90;82.90;;;;;;5105856;28;19937;-87
2022/11/01 11:27:00;;;;;;;;;;;15.70;83.40;;;;;;5093651;28;19912;-87
2022/11/01 11:29:34;;;;;;;;;;;15.70;82.90;;;;;;5076927;28;20625;-93
2022/11/01 11:32:01;;;;;;;;;;;16.00;84.30;;;;;;5089158;28;19924;-82
2022/11/01 11:34:37;;;;;;;;;;;16.00;83.20;;;;;;5107573;28;19916;-81
2022/11/01 11:37:04;;;;;;;;;;;15.90;82.10;;;;;;5096440;28;19951;-80
2022/11/01 11:39:30;;;;;;;;;;;15.80;82.90;;;;;;5098425;28;19912;-86
2022/11/01 11:42:15;;;;;;;;;;;15.60;85.00;;;;;;5093051;28;19919;-85
2022/11/01 11:44:43;;;;;;;;;;;15.60;83.60;;;;;;5095069;28;19930;-84
2022/11/01 11:47:38;;;;;;;;;;;15.80;83.70;;;;;;5099677;28;19927;-85
2022/11/01 11:50:33;;;;;;;;;;;15.70;81.70;;;;;;5082927;28;19920;-85
2022/11/01 11:53:01;;;;;;;;;;;15.80;83.80;;;;;;5070446;28;19912;-83
2022/11/01 11:55:34;;;;;;;;;;;15.60;82.40;;;;;;5088143;28;21548;-83
2022/11/01 11:58:00;;;;;;;;;;;15.80;84.00;;;;;;5090708;28;19950;-85
2022/11/01 12:00:27;;;;;;;;;;;16.10;82.70;;;;;;5096463;28;19916;-84
2022/11/01 12:02:52;;;;;;;;;;;16.00;82.90;;;;;;5099499;28;19916;-84
2022/11/01 12:05:21;;;;;;;;;;;15.90;81.70;;;;;;5102124;27;20026;-83
2022/11/01 12:07:48;;;;;;;;;;;16.00;82.90;;;;;;5100075;28;19937;-82
2022/11/01 12:10:33;;;;;;;;;;;16.00;82.50;;;;;;5095936;28;19959;-81
2022/11/01 12:12:59;;;;;;;;;;;16.00;82.70;;;;;;5101440;28;19916;-80
2022/11/01 12:15:28;;;;;;;;;;;16.00;82.00;;;;;;5096731;28;19934;-79
2022/11/01 12:17:54;;;;;;;;;;;15.90;81.10;;;;;;5100904;28;19993;-78
2022/11/01 12:20:20;;;;;;;;;;;16.10;82.00;;;;;;5097816;28;19971;-78
2022/11/01 12:22:49;;;;;;;;;;;16.20;82.40;;;;;;5105025;28;19919;-78
2022/11/01 12:25:17;;;;;;;;;;;16.20;81.70;;;;;;5106838;28;19919;-79
2022/11/01 12:28:09;;;;;;;;;;;16.20;80.70;;;;;;5099723;28;19928;-79
2022/11/01 12:30:36;;;;;;;;;;;16.20;81.80;;;;;;5070908;28;19931;-79
2022/11/01 12:33:05;;;;;;;;;;;16.10;83.40;;;;;;5101579;28;19922;-79
2022/11/01 12:35:40;;;;;;;;;;;16.20;82.80;;;;;;5094024;28;19916;-79
2022/11/01 12:38:25;;;;;;;;;;;15.90;81.30;;;;;;5100433;28;19998;-79
2022/11/01 12:40:51;;;;;;;;;;;16.00;82.70;;;;;;5100666;28;19954;-79
2022/11/01 12:43:22;;;;;;;;;;;16.20;82.80;;;;;;5101488;28;20382;-79
2022/11/01 12:45:48;;;;;;;;;;;16.10;84.10;;;;;;5097195;28;19935;-78
2022/11/01 12:48:23;;;;;;;;;;;16.10;81.80;;;;;;5097233;28;20421;-79
2022/11/01 12:50:58;;;;;;;;;;;16.10;83.30;;;;;;5091831;28;19934;-78
2022/11/01 12:53:27;;;;;;;;;;;16.20;81.90;;;;;;5098943;28;19953;-79
2022/11/01 12:55:52;;;;;;;;;;;16.00;81.70;;;;;;5092325;28;19928;-81
2022/11/01 12:58:18;;;;;;;;;;;16.00;82.60;;;;;;5095803;28;19923;-82
2022/11/01 13:01:03;;;;;;;;;;;16.00;82.80;;;;;;5102111;28;19947;-85
2022/11/01 13:03:43;;;;;;;;;;;16.00;82.80;;;;;;5101055;28;19962;-78
2022/11/01 13:06:09;;;;;;;;;;;15.90;83.10;;;;;;5087269;28;20011;-77
2022/11/01 13:08:40;;;;;;;;;;;15.80;83.50;;;;;;5103681;28;19999;-78
2022/11/01 13:11:13;;;;;;;;;;;15.80;83.70;;;;;;5109634;28;19963;-78
2022/11/01 13:13:42;;;;;;;;;;;15.90;85.10;;;;;;5094956;28;19912;-78
2022/11/01 13:16:11;;;;;;;;;;;16.00;84.50;;;;;;5108179;28;20031;-78
2022/11/01 13:18:48;;;;;;;;;;;15.80;83.20;;;;;;5106540;28;19915;-78
2022/11/01 13:21:36;;;;;;;;;;;15.60;84.40;;;;;;5096114;28;19988;-78
2022/11/01 13:24:08;;;;;;;;;;;15.70;85.50;;;;;;5104229;28;19934;-78
2022/11/01 13:27:05;;;;;;;;;;;15.60;83.40;;;;;;5096428;28;19926;-77
2022/11/01 13:29:55;;;;;;;;;;;15.60;84.20;;;;;;5057721;28;20362;-78
2022/11/01 13:32:44;;;;;;;;;;;15.70;85.10;;;;;;5106018;28;19920;-78
2022/11/01 13:35:26;;;;;;;;;;;15.70;86.40;;;;;;5105956;28;19920;-77
2022/11/01 13:37:57;;;;;;;;;;;15.70;85.20;;;;;;5103179;28;19958;-78
2022/11/01 13:40:39;;;;;;;;;;;15.70;84.30;;;;;;5104825;28;19924;-77
2022/11/01 13:43:08;;;;;;;;;;;15.60;85.40;;;;;;5101424;28;19938;-78
2022/11/01 13:45:52;;;;;;;;;;;15.50;86.20;;;;;;5095600;28;19923;-78
2022/11/01 13:48:24;;;;;;;;;;;15.70;85.80;;;;;;5100509;28;19920;-78
2022/11/01 13:50:55;;;;;;;;;;;15.80;84.80;;;;;;5102724;28;19916;-78
2022/11/01 13:53:25;;;;;;;;;;;15.70;84.90;;;;;;5104702;28;19938;-78
2022/11/01 13:55:54;;;;;;;;;;;15.60;84.50;;;;;;5103788;28;19920;-78
2022/11/01 13:58:20;;;;;;;;;;;15.70;84.90;;;;;;5101302;28;19916;-78
2022/11/01 14:00:48;;;;;;;;;;;15.60;84.30;;;;;;5108161;28;19961;-77
2022/11/01 14:03:17;;;;;;;;;;;15.70;85.30;;;;;;5101869;28;19916;-79
2022/11/01 14:05:43;;;;;;;;;;;15.70;85.50;;;;;;5100011;27;19919;-78
2022/11/01 14:08:27;;;;;;;;;;;15.90;85.40;;;;;;5086419;28;20372;-78
2022/11/01 14:10:53;;;;;;;;;;;15.70;85.90;;;;;;5117584;27;19927;-78
2022/11/01 14:13:30;;;;;;;;;;;15.70;85.80;;;;;;5099598;28;19916;-78
2022/11/01 14:15:56;;;;;;;;;;;15.90;85.00;;;;;;5087337;28;20346;-78
2022/11/01 14:18:21;;;;;;;;;;;16.00;84.90;;;;;;5103421;28;19923;-78
2022/11/01 14:20:48;;;;;;;;;;;15.80;83.90;;;;;;5096624;28;20345;-78
2022/11/01 14:23:30;;;;;;;;;;;15.80;85.40;;;;;;5108089;28;19922;-78
2022/11/01 14:26:14;;;;;;;;;;;15.80;84.40;;;;;;5102255;28;19999;-78
2022/11/01 14:28:43;;;;;;;;;;;15.90;85.00;;;;;;5100164;28;19912;-78
2022/11/01 14:31:09;;;;;;;;;;;15.90;85.50;;;;;;5089129;28;20020;-79
2022/11/01 14:33:35;;;;;;;;;;;15.70;85.10;;;;;;5107955;27;19912;-78
2022/11/01 14:36:01;;;;;;;;;;;15.70;85.40;;;;;;5100644;28;20434;-78